createdAt,value
2023-06-17T00:00:58.720Z,73.21
2023-06-17T00:03:47.318Z,73.29
2023-06-17T00:06:35.933Z,73.34
2023-06-17T00:09:24.395Z,73.55
2023-06-17T00:12:13.606Z,73.47
2023-06-17T00:15:05.597Z,73.65
2023-06-17T00:17:54.400Z,73.81
2023-06-17T00:20:42.984Z,73.81
2023-06-17T00:23:32.122Z,73.96
2023-06-17T00:26:20.625Z,74.12
2023-06-17T00:29:09.356Z,74.11
2023-06-17T00:31:58.136Z,74.02
2023-06-17T00:34:46.718Z,74.23
2023-06-17T00:37:35.208Z,74.17
2023-06-17T00:40:23.739Z,73.97
2023-06-17T00:43:12.257Z,73.80
2023-06-17T00:46:00.981Z,73.80
2023-06-17T00:48:49.510Z,73.86
2023-06-17T00:51:38.437Z,73.71
2023-06-17T00:54:28.846Z,73.80
2023-06-17T00:57:17.325Z,73.57
2023-06-17T01:00:11.125Z,73.79
2023-06-17T01:03:00.108Z,73.88
2023-06-17T01:05:50.419Z,73.98
2023-06-17T01:08:45.222Z,73.83
2023-06-17T01:11:34.868Z,74.01
2023-06-17T01:14:23.546Z,74.10
2023-06-17T01:17:13.899Z,73.95
2023-06-17T01:20:04.558Z,74.10
2023-06-17T01:22:53.549Z,74.25
2023-06-17T01:25:42.642Z,74.08
2023-06-17T01:28:31.951Z,74.18
2023-06-17T01:31:20.696Z,74.35
2023-06-17T01:34:09.736Z,74.50
2023-06-17T01:36:58.209Z,74.52
2023-06-17T01:39:48.509Z,74.71
2023-06-17T01:42:37.841Z,74.55
2023-06-17T01:45:29.534Z,74.75
2023-06-17T01:48:19.490Z,74.71
2023-06-17T01:51:07.978Z,74.88
2023-06-17T01:53:56.429Z,74.80
2023-06-17T01:56:45.244Z,74.84
2023-06-17T01:59:33.837Z,74.79
2023-06-17T02:02:22.878Z,74.85
2023-06-17T02:05:11.623Z,75.12
2023-06-17T02:08:00.892Z,75.00
2023-06-17T02:10:53.759Z,74.98
2023-06-17T02:13:42.178Z,75.04
2023-06-17T02:16:30.864Z,75.20
2023-06-17T02:19:19.478Z,75.22
2023-06-17T02:22:08.975Z,75.26
2023-06-17T02:24:57.419Z,75.32
2023-06-17T02:27:45.958Z,75.24
2023-06-17T02:30:34.542Z,75.22
2023-06-17T02:33:23.989Z,75.09
2023-06-17T02:36:15.543Z,75.23
2023-06-17T02:39:04.411Z,75.36
2023-06-17T02:41:52.856Z,75.15
2023-06-17T02:44:41.276Z,75.32
2023-06-17T02:47:29.911Z,75.35
2023-06-17T02:50:21.396Z,75.38
2023-06-17T02:53:11.790Z,75.37
2023-06-17T02:56:00.908Z,75.26
2023-06-17T02:58:51.586Z,75.39
2023-06-17T03:01:43.425Z,75.39
2023-06-17T03:04:36.786Z,75.61
2023-06-17T03:07:25.868Z,75.47
2023-06-17T03:10:16.582Z,75.39
2023-06-17T03:13:07.680Z,75.41
2023-06-17T03:15:59.764Z,75.66
2023-06-17T03:18:48.704Z,76.00
2023-06-17T03:21:42.105Z,76.05
2023-06-17T03:24:31.111Z,75.74
2023-06-17T03:27:21.585Z,75.78
2023-06-17T03:30:10.909Z,75.29
2023-06-17T03:32:59.958Z,74.97
2023-06-17T03:35:48.593Z,74.85
2023-06-17T03:38:37.093Z,74.29
2023-06-17T03:41:26.274Z,73.77
2023-06-17T03:44:14.972Z,73.37
2023-06-17T03:47:04.195Z,72.54
2023-06-17T03:49:54.056Z,71.89
2023-06-17T03:52:42.594Z,71.28
2023-06-17T03:55:31.293Z,70.18
2023-06-17T03:58:20.351Z,69.66
2023-06-17T04:01:13.403Z,68.61
2023-06-17T04:04:02.662Z,67.90
2023-06-17T04:06:51.941Z,66.93
2023-06-17T04:09:45.745Z,66.35
2023-06-17T04:12:43.005Z,66.31
2023-06-17T04:15:31.411Z,66.35
2023-06-17T04:18:20.660Z,66.52
2023-06-17T04:21:10.640Z,66.89
2023-06-17T04:23:59.385Z,67.17
2023-06-17T04:26:47.990Z,67.77
2023-06-17T04:29:38.621Z,68.43
2023-06-17T04:32:27.824Z,69.22
2023-06-17T04:35:19.212Z,69.78
2023-06-17T04:38:09.051Z,70.27
2023-06-17T04:40:57.869Z,70.73
2023-06-17T04:43:49.920Z,71.03
2023-06-17T04:46:38.877Z,71.83
2023-06-17T04:49:28.431Z,72.03
2023-06-17T04:52:20.391Z,71.92
2023-06-17T04:55:10.449Z,71.86
2023-06-17T04:57:58.901Z,72.09
2023-06-17T05:00:58.345Z,71.34
2023-06-17T05:03:48.891Z,70.94
2023-06-17T05:06:37.649Z,70.73
2023-06-17T05:09:26.597Z,70.43
2023-06-17T05:12:16.247Z,70.56
2023-06-17T05:15:04.988Z,70.48
2023-06-17T05:17:54.981Z,70.36
2023-06-17T05:20:43.637Z,69.95
2023-06-17T05:23:33.463Z,69.51
2023-06-17T05:26:22.099Z,69.31
2023-06-17T05:29:10.865Z,70.11
2023-06-17T05:32:01.305Z,70.20
2023-06-17T05:34:50.622Z,70.73
2023-06-17T05:37:39.362Z,70.45
2023-06-17T05:40:27.855Z,69.82
2023-06-17T05:43:17.375Z,69.97
2023-06-17T05:46:05.949Z,69.91
2023-06-17T05:48:54.601Z,69.49
2023-06-17T05:51:43.295Z,69.42
2023-06-17T05:54:31.941Z,69.36
2023-06-17T05:57:22.397Z,68.87
2023-06-17T06:00:11.654Z,68.65
2023-06-17T06:03:02.768Z,69.23
2023-06-17T06:05:51.415Z,69.53
2023-06-17T06:08:40.938Z,69.62
2023-06-17T06:11:29.376Z,68.93
2023-06-17T06:14:19.395Z,67.25
2023-06-17T06:17:08.675Z,67.80
2023-06-17T06:19:57.285Z,68.18
2023-06-17T06:22:46.302Z,68.32
2023-06-17T06:25:34.770Z,68.31
2023-06-17T06:28:23.486Z,68.15
2023-06-17T06:31:12.964Z,69.15
2023-06-17T06:34:01.498Z,69.28
2023-06-17T06:36:50.083Z,68.72
2023-06-17T06:39:38.752Z,68.57
2023-06-17T06:42:27.535Z,68.90
2023-06-17T06:45:29.348Z,68.93
2023-06-17T06:48:18.018Z,68.92
2023-06-17T06:51:06.847Z,68.00
2023-06-17T06:53:55.281Z,67.33
2023-06-17T06:56:44.950Z,65.81
2023-06-17T06:59:33.604Z,65.27
2023-06-17T07:02:22.177Z,65.16
2023-06-17T07:05:10.776Z,64.84
2023-06-17T07:08:04.227Z,64.64
2023-06-17T07:10:54.638Z,64.41
2023-06-17T07:13:45.149Z,63.87
2023-06-17T07:16:33.640Z,63.41
2023-06-17T07:19:22.218Z,64.15
2023-06-17T07:22:11.003Z,64.02
2023-06-17T07:25:00.588Z,63.58
2023-06-17T07:27:49.163Z,63.04
2023-06-17T07:30:38.156Z,62.90
2023-06-17T07:33:29.720Z,62.64
2023-06-17T07:36:18.191Z,62.71
2023-06-17T07:39:07.339Z,62.62
2023-06-17T07:41:55.946Z,62.51
2023-06-17T07:44:45.071Z,61.46
2023-06-17T07:47:34.046Z,61.17
2023-06-17T07:50:22.777Z,61.06
2023-06-17T07:53:11.645Z,61.20
2023-06-17T07:56:00.282Z,61.33
2023-06-17T07:58:49.251Z,61.43
2023-06-17T08:01:38.408Z,60.60
2023-06-17T08:04:27.625Z,60.59
2023-06-17T08:07:16.879Z,60.87
2023-06-17T08:10:08.074Z,60.10
2023-06-17T08:12:58.291Z,59.59
2023-06-17T08:15:46.957Z,59.94
2023-06-17T08:18:35.494Z,59.22
2023-06-17T08:21:23.898Z,59.06
2023-06-17T08:24:19.428Z,59.00
2023-06-17T08:27:11.123Z,58.25
2023-06-17T08:29:59.954Z,58.41
2023-06-17T08:32:48.473Z,58.74
2023-06-17T08:35:36.940Z,58.21
2023-06-17T08:38:25.395Z,57.95
2023-06-17T08:41:14.018Z,58.59
2023-06-17T08:44:02.983Z,57.94
2023-06-17T08:46:54.926Z,57.60
2023-06-17T08:49:44.161Z,57.00
2023-06-17T08:52:34.676Z,57.07
2023-06-17T08:55:23.202Z,57.28
2023-06-17T08:58:11.712Z,56.88
2023-06-17T09:01:00.353Z,56.87
2023-06-17T09:03:51.743Z,57.36
2023-06-17T09:06:40.156Z,56.75
2023-06-17T09:09:28.658Z,56.36
2023-06-17T09:12:17.110Z,55.29
2023-06-17T09:15:09.734Z,54.73
2023-06-17T09:17:59.803Z,53.53
2023-06-17T09:20:56.864Z,53.83
2023-06-17T09:23:52.151Z,53.92
2023-06-17T09:26:41.682Z,53.86
2023-06-17T09:29:31.206Z,54.17
2023-06-17T09:32:19.640Z,54.94
2023-06-17T09:35:12.870Z,55.63
2023-06-17T09:38:04.021Z,55.68
2023-06-17T09:40:54.237Z,55.45
2023-06-17T09:43:49.237Z,55.42
2023-06-17T09:46:40.719Z,55.05
2023-06-17T09:49:31.333Z,54.85
2023-06-17T09:52:21.708Z,55.17
2023-06-17T09:55:10.951Z,55.29
2023-06-17T09:58:00.898Z,55.72
2023-06-17T10:00:53.001Z,55.85
2023-06-17T10:03:41.587Z,55.97
2023-06-17T10:06:31.384Z,56.29
2023-06-17T10:09:19.992Z,56.32
2023-06-17T10:12:08.935Z,56.92
2023-06-17T10:14:59.291Z,57.02
2023-06-17T10:17:48.682Z,57.48
2023-06-17T10:20:38.138Z,57.64
2023-06-17T10:23:26.696Z,57.70
2023-06-17T10:26:15.142Z,57.44
2023-06-17T10:29:08.079Z,56.95
2023-06-17T10:31:56.662Z,56.94
2023-06-17T10:35:05.303Z,56.72
2023-06-17T10:37:53.724Z,57.27
2023-06-17T10:40:48.193Z,57.58
2023-06-17T10:43:37.740Z,57.79
2023-06-17T10:46:27.027Z,57.76
2023-06-17T10:49:15.999Z,57.82
2023-06-17T10:52:04.512Z,57.71
2023-06-17T10:54:54.292Z,57.30
2023-06-17T10:57:42.761Z,57.76
2023-06-17T11:00:31.335Z,58.02
2023-06-17T11:03:20.209Z,57.88
2023-06-17T11:06:10.373Z,58.30
2023-06-17T11:08:58.774Z,58.56
2023-06-17T11:11:47.175Z,58.39
2023-06-17T11:14:36.249Z,57.97
2023-06-17T11:17:24.727Z,58.18
2023-06-17T11:20:13.421Z,57.91
2023-06-17T11:23:03.676Z,58.06
2023-06-17T11:25:53.499Z,57.83
2023-06-17T11:28:42.488Z,57.93
2023-06-17T11:31:36.430Z,57.98
2023-06-17T11:34:25.244Z,58.62
2023-06-17T11:37:13.727Z,58.96
2023-06-17T11:40:05.652Z,59.30
2023-06-17T11:42:54.153Z,59.24
2023-06-17T11:45:42.713Z,59.43
2023-06-17T11:48:34.429Z,59.72
2023-06-17T11:51:22.864Z,59.97
2023-06-17T11:54:11.633Z,59.96
2023-06-17T11:57:00.939Z,60.55
2023-06-17T11:59:49.899Z,60.90
2023-06-17T12:02:39.474Z,61.17
2023-06-17T12:05:28.720Z,61.84
2023-06-17T12:08:17.594Z,62.62
2023-06-17T12:11:23.979Z,62.75
2023-06-17T12:14:13.285Z,63.26
2023-06-17T12:17:01.702Z,63.79
2023-06-17T12:19:50.315Z,64.15
2023-06-17T12:22:39.687Z,64.05
2023-06-17T12:25:28.351Z,64.63
2023-06-17T12:28:19.692Z,64.70
2023-06-17T12:31:09.769Z,65.45
2023-06-17T12:33:58.317Z,66.14
2023-06-17T12:36:46.792Z,66.79
2023-06-17T12:39:36.375Z,66.95
2023-06-17T12:42:25.156Z,67.73
2023-06-17T12:45:14.389Z,67.94
2023-06-17T12:48:04.341Z,68.42
2023-06-17T12:50:52.883Z,69.21
2023-06-17T12:53:41.379Z,69.60
2023-06-17T12:56:29.916Z,70.09
2023-06-17T12:59:18.366Z,70.23
2023-06-17T13:02:07.064Z,70.78
2023-06-17T13:04:56.572Z,69.63
2023-06-17T13:07:45.064Z,70.38
2023-06-17T13:10:34.227Z,71.21
2023-06-17T13:13:23.080Z,71.71
2023-06-17T13:16:11.563Z,72.02
2023-06-17T13:19:00.012Z,70.17
2023-06-17T13:21:48.446Z,70.86
2023-06-17T13:24:37.055Z,70.89
2023-06-17T13:27:26.358Z,70.74
2023-06-17T13:30:15.605Z,69.82
2023-06-17T13:33:04.138Z,68.31
2023-06-17T13:35:52.772Z,68.22
2023-06-17T13:38:41.443Z,68.03
2023-06-17T13:41:31.934Z,66.82
2023-06-17T13:44:20.438Z,64.32
2023-06-17T13:47:09.024Z,65.38
2023-06-17T13:49:57.403Z,65.61
2023-06-17T13:52:46.075Z,66.37
2023-06-17T13:55:34.595Z,66.52
2023-06-17T13:58:23.105Z,67.46
2023-06-17T14:01:11.878Z,67.82
2023-06-17T14:04:01.060Z,66.44
2023-06-17T14:06:50.077Z,64.84
2023-06-17T14:09:38.905Z,65.22
2023-06-17T14:12:27.572Z,66.09
2023-06-17T14:15:16.025Z,65.06
2023-06-17T14:18:04.721Z,64.91
2023-06-17T14:20:53.369Z,65.11
2023-06-17T14:23:51.452Z,66.29
2023-06-17T14:26:41.393Z,67.23
2023-06-17T14:29:29.795Z,68.30
2023-06-17T14:32:18.438Z,67.03
2023-06-17T14:35:07.333Z,67.43
2023-06-17T14:37:55.877Z,68.26
2023-06-17T14:40:45.746Z,68.46
2023-06-17T14:43:34.185Z,68.96
2023-06-17T14:46:22.748Z,68.90
2023-06-17T14:49:11.324Z,68.87
2023-06-17T14:51:59.947Z,68.46
2023-06-17T14:54:48.385Z,68.22
2023-06-17T14:57:37.450Z,68.39
2023-06-17T15:00:25.984Z,69.08
2023-06-17T15:03:14.694Z,68.85
2023-06-17T15:06:03.827Z,68.90
2023-06-17T15:08:55.755Z,68.62
2023-06-17T15:11:47.403Z,68.61
2023-06-17T15:14:38.258Z,68.97
2023-06-17T15:17:27.225Z,69.04
2023-06-17T15:20:15.872Z,69.39
2023-06-17T15:23:04.307Z,69.72
2023-06-17T15:25:52.844Z,69.57
2023-06-17T15:28:41.987Z,69.54
2023-06-17T15:31:30.605Z,69.89
2023-06-17T15:34:19.362Z,69.77
2023-06-17T15:37:08.243Z,67.57
2023-06-17T15:39:56.694Z,67.16
2023-06-17T15:42:45.769Z,67.07
2023-06-17T15:45:34.188Z,68.35
2023-06-17T15:48:22.683Z,69.43
2023-06-17T15:51:11.777Z,69.91
2023-06-17T15:54:00.239Z,69.98
2023-06-17T15:56:48.928Z,70.30
2023-06-17T15:59:37.410Z,70.49
2023-06-17T16:02:26.321Z,70.66
2023-06-17T16:05:14.923Z,71.25
2023-06-17T16:08:03.515Z,71.39
2023-06-17T16:10:52.418Z,71.48
2023-06-17T16:13:40.926Z,71.66
2023-06-17T16:16:29.363Z,71.42
2023-06-17T16:19:18.056Z,70.29
2023-06-17T16:22:11.065Z,70.24
2023-06-17T16:24:59.665Z,70.26
2023-06-17T16:27:48.154Z,69.13
2023-06-17T16:30:36.637Z,69.89
2023-06-17T16:33:25.351Z,70.79
2023-06-17T16:36:14.340Z,70.72
2023-06-17T16:39:02.833Z,71.10
2023-06-17T16:41:51.292Z,71.72
2023-06-17T16:44:39.738Z,71.91
2023-06-17T16:47:28.231Z,72.11
2023-06-17T16:50:16.650Z,72.62
2023-06-17T16:53:05.074Z,72.99
2023-06-17T16:55:53.484Z,72.80
2023-06-17T16:58:42.060Z,72.46
2023-06-17T17:01:31.141Z,72.59
2023-06-17T17:04:19.812Z,72.71
2023-06-17T17:07:08.223Z,72.55
2023-06-17T17:09:56.868Z,72.42
2023-06-17T17:12:45.330Z,72.46
2023-06-17T17:15:33.898Z,72.85
2023-06-17T17:18:22.526Z,73.17
2023-06-17T17:21:11.039Z,73.83
2023-06-17T17:23:59.534Z,74.57
2023-06-17T17:26:47.982Z,74.52
2023-06-17T17:29:36.437Z,74.38
2023-06-17T17:32:25.094Z,74.58
2023-06-17T17:35:14.032Z,75.14
2023-06-17T17:38:02.539Z,75.30
2023-06-17T17:40:51.208Z,75.37
2023-06-17T17:43:39.634Z,74.90
2023-06-17T17:46:29.098Z,75.05
2023-06-17T17:49:17.561Z,75.44
2023-06-17T17:52:06.141Z,75.55
2023-06-17T17:55:02.372Z,75.90
2023-06-17T17:57:51.687Z,75.85
2023-06-17T18:00:40.095Z,75.68
2023-06-17T18:03:28.684Z,76.05
2023-06-17T18:06:17.450Z,76.02
2023-06-17T18:09:05.997Z,76.05
2023-06-17T18:11:54.425Z,76.14
2023-06-17T18:14:42.857Z,76.17
2023-06-17T18:17:31.356Z,76.29
2023-06-17T18:20:19.977Z,76.21
2023-06-17T18:23:08.742Z,76.39
2023-06-17T18:25:57.264Z,76.23
2023-06-17T18:28:45.707Z,76.06
2023-06-17T18:31:34.185Z,76.37
2023-06-17T18:34:22.641Z,77.01
2023-06-17T18:37:11.066Z,77.38
2023-06-17T18:39:59.816Z,77.83
2023-06-17T18:42:48.340Z,78.01
2023-06-17T18:45:36.850Z,78.01
2023-06-17T18:48:25.528Z,78.05
2023-06-17T18:51:13.961Z,78.05
2023-06-17T18:54:02.580Z,78.33
2023-06-17T18:56:51.206Z,78.09
2023-06-17T18:59:39.614Z,78.12
2023-06-17T19:02:29.283Z,78.20
2023-06-17T19:05:18.112Z,78.21
2023-06-17T19:08:06.558Z,78.20
2023-06-17T19:10:55.107Z,78.19
2023-06-17T19:13:43.839Z,77.94
2023-06-17T19:16:32.407Z,78.00
2023-06-17T19:19:20.930Z,77.96
2023-06-17T19:22:09.454Z,77.83
2023-06-17T19:24:58.767Z,77.99
2023-06-17T19:27:47.272Z,77.92
2023-06-17T19:30:35.750Z,77.95
2023-06-17T19:33:24.197Z,77.97
2023-06-17T19:36:12.653Z,77.86
2023-06-17T19:39:01.139Z,77.71
2023-06-17T19:41:49.893Z,77.88
2023-06-17T19:44:43.690Z,77.88
2023-06-17T19:47:32.623Z,77.76
2023-06-17T19:50:21.508Z,78.00
2023-06-17T19:53:10.117Z,77.92
2023-06-17T19:55:58.687Z,77.96
2023-06-17T19:58:47.759Z,77.77
2023-06-17T20:01:36.218Z,77.87
2023-06-17T20:04:24.969Z,77.91
2023-06-17T20:07:13.569Z,78.00
2023-06-17T20:10:02.382Z,77.83
2023-06-17T20:12:51.736Z,77.91
2023-06-17T20:15:40.471Z,77.89
2023-06-17T20:18:29.068Z,77.74
2023-06-17T20:21:17.849Z,77.56
2023-06-17T20:24:06.591Z,77.81
2023-06-17T20:26:56.061Z,77.89
2023-06-17T20:29:46.292Z,77.75
2023-06-17T20:32:34.883Z,77.72
2023-06-17T20:35:23.524Z,77.85
2023-06-17T20:38:11.960Z,77.86
2023-06-17T20:41:00.965Z,77.96
2023-06-17T20:43:49.566Z,77.91
2023-06-17T20:46:38.256Z,78.04
2023-06-17T20:49:27.526Z,78.14
2023-06-17T20:52:16.250Z,78.41
2023-06-17T20:55:04.890Z,78.48
2023-06-17T20:57:53.484Z,78.09
2023-06-17T21:00:41.921Z,78.20
2023-06-17T21:03:30.960Z,78.31
2023-06-17T21:06:19.828Z,78.27
2023-06-17T21:09:08.411Z,78.46
2023-06-17T21:11:56.815Z,79.06
2023-06-17T21:14:45.636Z,79.19
2023-06-17T21:17:34.168Z,78.64
2023-06-17T21:20:22.983Z,78.47
2023-06-17T21:23:11.732Z,78.75
2023-06-17T21:26:01.088Z,79.27
2023-06-17T21:28:49.930Z,79.38
2023-06-17T21:31:38.357Z,79.24
2023-06-17T21:34:26.778Z,79.08
2023-06-17T21:37:15.239Z,79.15
2023-06-17T21:40:03.866Z,79.14
2023-06-17T21:42:52.280Z,79.37
2023-06-17T21:45:40.800Z,79.01
2023-06-17T21:48:31.104Z,78.89
2023-06-17T21:51:19.540Z,78.86
2023-06-17T21:54:07.989Z,78.49
2023-06-17T21:56:56.389Z,78.54
2023-06-17T21:59:44.792Z,78.81
2023-06-17T22:02:33.384Z,79.50
2023-06-17T22:05:22.240Z,79.59
2023-06-17T22:08:10.816Z,80.43
2023-06-17T22:10:59.533Z,80.49
2023-06-17T22:13:49.819Z,80.74
2023-06-17T22:16:39.422Z,80.22
2023-06-17T22:19:27.904Z,80.50
2023-06-17T22:22:16.314Z,80.53
2023-06-17T22:25:07.419Z,80.04
2023-06-17T22:27:56.848Z,80.15
2023-06-17T22:30:45.239Z,80.74
2023-06-17T22:33:33.682Z,80.77
2023-06-17T22:36:22.168Z,80.66
2023-06-17T22:39:10.599Z,80.60
2023-06-17T22:41:59.160Z,80.27
2023-06-17T22:44:47.568Z,80.03
2023-06-17T22:47:36.103Z,80.08
2023-06-17T22:50:24.760Z,80.00
2023-06-17T22:53:13.505Z,80.21
2023-06-17T22:56:01.950Z,80.08
2023-06-17T22:58:50.461Z,79.84
2023-06-17T23:01:39.008Z,79.84
2023-06-17T23:04:27.431Z,80.30
2023-06-17T23:07:16.001Z,80.41
2023-06-17T23:10:05.487Z,79.90
2023-06-17T23:12:53.955Z,80.12
2023-06-17T23:15:42.797Z,80.15
2023-06-17T23:18:31.205Z,80.12
2023-06-17T23:21:19.999Z,80.24
2023-06-17T23:24:08.894Z,80.30
2023-06-17T23:26:58.390Z,80.51
2023-06-17T23:29:48.203Z,80.59
2023-06-17T23:32:36.851Z,80.90
2023-06-17T23:35:25.436Z,80.95
2023-06-17T23:38:14.215Z,80.65
2023-06-17T23:41:02.977Z,80.24
2023-06-17T23:43:51.454Z,80.37
2023-06-17T23:46:39.855Z,80.16
2023-06-17T23:49:28.252Z,80.18
2023-06-17T23:52:16.676Z,79.72
2023-06-17T23:55:05.243Z,79.91
2023-06-17T23:57:53.686Z,80.02
